Time;durP1;ratioP1;P1;durP2;ratioP2;P2;SDS_P1;SDS_P2;PMS_P1;PMS_P2;Temp;Humidity;BMP_temperature;BMP_pressure;BME280_temperature;BME280_humidity;BME280_pressure;Samples;Min_cycle;Max_cycle;Signal;HPM_P1;HPM_P2
2021/07/05 00:02:10;;;;;;;;;;;17.20;93.80;;;;;;5077223;28;20351;-67
2021/07/05 00:04:36;;;;;;;;;;;17.20;94.00;;;;;;5071954;28;20027;-67
2021/07/05 00:07:02;;;;;;;;;;;17.20;94.00;;;;;;5080042;28;19988;-67
2021/07/05 00:09:27;;;;;;;;;;;17.20;93.80;;;;;;5074301;28;20322;-67
2021/07/05 00:11:53;;;;;;;;;;;17.20;94.20;;;;;;5071525;28;19931;-67
2021/07/05 00:14:18;;;;;;;;;;;17.20;94.00;;;;;;5077489;28;19993;-67
2021/07/05 00:16:44;;;;;;;;;;;17.10;94.20;;;;;;5072624;28;19916;-67
2021/07/05 00:19:10;;;;;;;;;;;17.10;94.30;;;;;;5073339;28;19912;-68
2021/07/05 00:21:35;;;;;;;;;;;17.10;94.50;;;;;;5073495;28;19916;-67
2021/07/05 00:24:01;;;;;;;;;;;17.10;94.70;;;;;;5077115;28;19935;-68
2021/07/05 00:26:26;;;;;;;;;;;17.10;94.50;;;;;;5056374;28;20006;-67
2021/07/05 00:28:52;;;;;;;;;;;17.10;94.70;;;;;;5071916;28;20011;-68
2021/07/05 00:31:17;;;;;;;;;;;17.10;95.00;;;;;;5075337;28;19935;-67
2021/07/05 00:33:43;;;;;;;;;;;17.00;94.90;;;;;;5077720;28;20165;-66
2021/07/05 00:36:08;;;;;;;;;;;17.00;95.10;;;;;;5075093;28;19920;-67
2021/07/05 00:38:34;;;;;;;;;;;17.00;95.20;;;;;;5077840;28;19997;-67
2021/07/05 00:40:59;;;;;;;;;;;17.00;95.30;;;;;;5078959;28;19912;-67
2021/07/05 00:43:25;;;;;;;;;;;17.00;95.10;;;;;;5076427;28;20254;-68
2021/07/05 00:45:50;;;;;;;;;;;17.00;95.30;;;;;;5078063;28;19931;-67
2021/07/05 00:48:16;;;;;;;;;;;17.00;95.60;;;;;;5078006;28;20555;-68
2021/07/05 00:50:41;;;;;;;;;;;17.00;95.70;;;;;;5075775;28;19924;-68
2021/07/05 00:53:07;;;;;;;;;;;17.00;95.50;;;;;;5071221;28;20396;-66
2021/07/05 00:55:33;;;;;;;;;;;16.90;95.50;;;;;;5075826;28;19920;-67
2021/07/05 00:57:59;;;;;;;;;;;16.90;95.80;;;;;;5078734;28;20633;-67
2021/07/05 01:00:25;;;;;;;;;;;16.80;95.70;;;;;;5079291;28;19918;-67
2021/07/05 01:02:51;;;;;;;;;;;16.80;95.60;;;;;;5077514;28;19916;-67
2021/07/05 01:05:17;;;;;;;;;;;16.80;95.70;;;;;;5078874;28;19945;-67
2021/07/05 01:07:43;;;;;;;;;;;16.80;95.70;;;;;;5078906;28;19923;-66
2021/07/05 01:10:09;;;;;;;;;;;16.80;95.80;;;;;;5075353;28;20537;-67
2021/07/05 01:12:35;;;;;;;;;;;16.80;95.80;;;;;;5084652;28;19934;-67
2021/07/05 01:15:02;;;;;;;;;;;16.80;95.50;;;;;;5078153;28;20332;-67
2021/07/05 01:17:27;;;;;;;;;;;16.70;95.60;;;;;;5056212;28;20271;-68
2021/07/05 01:19:53;;;;;;;;;;;16.70;95.70;;;;;;5082116;28;20006;-68
2021/07/05 01:22:19;;;;;;;;;;;16.70;95.80;;;;;;5082076;28;19939;-67
2021/07/05 01:24:45;;;;;;;;;;;16.80;96.00;;;;;;5086285;28;19920;-67
2021/07/05 01:27:11;;;;;;;;;;;16.80;96.10;;;;;;5083441;28;20349;-67
2021/07/05 01:29:39;;;;;;;;;;;16.70;95.90;;;;;;5076860;28;19977;-67
2021/07/05 01:32:05;;;;;;;;;;;16.60;96.00;;;;;;5078120;28;20380;-67
2021/07/05 01:34:30;;;;;;;;;;;16.70;96.10;;;;;;5086549;28;19912;-67
2021/07/05 01:36:56;;;;;;;;;;;16.70;96.20;;;;;;5086552;28;19920;-68
2021/07/05 01:39:21;;;;;;;;;;;16.70;96.20;;;;;;5083679;28;19931;-67
2021/07/05 01:41:47;;;;;;;;;;;16.70;96.30;;;;;;5083816;28;19973;-67
2021/07/05 01:44:13;;;;;;;;;;;16.70;96.30;;;;;;5084324;28;20020;-67
2021/07/05 01:46:38;;;;;;;;;;;16.70;96.50;;;;;;5076025;28;19936;-67
2021/07/05 01:49:05;;;;;;;;;;;16.70;96.30;;;;;;5081490;28;19992;-68
2021/07/05 01:51:30;;;;;;;;;;;16.70;96.30;;;;;;5084629;28;20249;-68
2021/07/05 01:53:56;;;;;;;;;;;16.70;96.30;;;;;;5074992;28;19920;-68
2021/07/05 01:56:22;;;;;;;;;;;16.70;96.30;;;;;;5082725;28;19916;-67
2021/07/05 01:58:47;;;;;;;;;;;16.70;96.20;;;;;;5084953;28;20563;-67
2021/07/05 02:01:13;;;;;;;;;;;16.70;96.30;;;;;;5083906;28;19939;-67
2021/07/05 02:03:38;;;;;;;;;;;16.70;96.30;;;;;;5084195;28;21761;-67
2021/07/05 02:06:04;;;;;;;;;;;16.60;96.30;;;;;;5060324;28;20066;-67
2021/07/05 02:08:29;;;;;;;;;;;16.60;96.20;;;;;;5068758;28;20515;-67
2021/07/05 02:10:55;;;;;;;;;;;16.60;96.20;;;;;;5085436;28;19916;-67
2021/07/05 02:13:22;;;;;;;;;;;16.70;96.30;;;;;;5084253;28;19938;-66
2021/07/05 02:15:49;;;;;;;;;;;16.60;96.20;;;;;;5078139;28;19920;-66
2021/07/05 02:18:14;;;;;;;;;;;16.60;96.30;;;;;;5079334;28;19916;-67
2021/07/05 02:20:40;;;;;;;;;;;16.60;96.30;;;;;;5077565;28;20406;-66
2021/07/05 02:23:07;;;;;;;;;;;16.60;96.40;;;;;;5082818;28;19978;-66
2021/07/05 02:25:33;;;;;;;;;;;16.60;96.50;;;;;;5084780;28;19920;-67
2021/07/05 02:28:00;;;;;;;;;;;16.60;96.50;;;;;;5075677;28;19935;-67
2021/07/05 02:30:27;;;;;;;;;;;16.70;96.70;;;;;;5059780;28;19984;-67
2021/07/05 02:32:53;;;;;;;;;;;16.70;96.50;;;;;;5080967;28;19919;-67
2021/07/05 02:35:20;;;;;;;;;;;16.60;96.50;;;;;;5084748;28;19916;-67
2021/07/05 02:37:47;;;;;;;;;;;16.70;96.50;;;;;;5062175;28;20000;-67
2021/07/05 02:40:14;;;;;;;;;;;16.60;96.50;;;;;;5069587;28;19989;-67
2021/07/05 02:42:40;;;;;;;;;;;16.60;96.50;;;;;;5081399;28;19916;-67
2021/07/05 02:45:09;;;;;;;;;;;16.60;96.50;;;;;;5071958;28;20384;-66
2021/07/05 02:47:34;;;;;;;;;;;16.60;96.60;;;;;;5081322;28;20083;-67
2021/07/05 02:50:00;;;;;;;;;;;16.60;96.60;;;;;;5083478;28;20561;-67
2021/07/05 02:52:25;;;;;;;;;;;16.60;96.60;;;;;;5084699;28;19908;-67
2021/07/05 02:54:51;;;;;;;;;;;16.50;96.60;;;;;;5084399;28;20237;-67
2021/07/05 02:57:29;;;;;;;;;;;16.60;96.70;;;;;;5083406;28;19912;-67
2021/07/05 03:00:01;;;;;;;;;;;16.60;96.70;;;;;;5084336;28;19985;-67
2021/07/05 03:02:30;;;;;;;;;;;16.50;96.70;;;;;;5083103;28;19978;-66
2021/07/05 03:04:59;;;;;;;;;;;16.50;96.70;;;;;;5074444;28;19912;-67
2021/07/05 03:07:25;;;;;;;;;;;16.50;96.80;;;;;;5049237;28;20336;-67
2021/07/05 03:09:50;;;;;;;;;;;16.40;96.90;;;;;;5078827;28;20301;-66
2021/07/05 03:12:16;;;;;;;;;;;16.40;96.80;;;;;;5082736;28;19992;-67
2021/07/05 03:14:41;;;;;;;;;;;16.40;96.90;;;;;;5080118;28;19958;-69
2021/07/05 03:17:07;;;;;;;;;;;16.40;97.00;;;;;;5073718;28;20367;-67
2021/07/05 03:19:32;;;;;;;;;;;16.40;97.00;;;;;;5081331;28;19912;-67
2021/07/05 03:21:58;;;;;;;;;;;16.40;97.00;;;;;;5082222;28;20353;-67
2021/07/05 03:24:23;;;;;;;;;;;16.40;97.00;;;;;;5051198;28;19971;-68
2021/07/05 03:26:49;;;;;;;;;;;16.40;96.90;;;;;;5068474;28;20362;-67
2021/07/05 03:29:14;;;;;;;;;;;16.30;96.90;;;;;;5058646;28;19939;-67
2021/07/05 03:31:40;;;;;;;;;;;16.30;97.00;;;;;;5072060;28;19912;-67
2021/07/05 03:34:05;;;;;;;;;;;16.30;96.90;;;;;;5083605;28;20535;-67
2021/07/05 03:36:31;;;;;;;;;;;16.30;96.90;;;;;;5075494;28;19926;-67
2021/07/05 03:38:56;;;;;;;;;;;16.30;96.90;;;;;;5083100;28;19912;-67
2021/07/05 03:41:22;;;;;;;;;;;16.40;96.90;;;;;;5076891;28;19920;-67
2021/07/05 03:43:47;;;;;;;;;;;16.30;96.90;;;;;;5082726;28;19935;-67
2021/07/05 03:46:13;;;;;;;;;;;16.30;96.80;;;;;;5076763;28;19916;-68
2021/07/05 03:48:39;;;;;;;;;;;16.30;96.80;;;;;;5078407;28;20301;-67
2021/07/05 03:51:04;;;;;;;;;;;16.30;96.90;;;;;;5078597;28;19924;-68
2021/07/05 03:53:30;;;;;;;;;;;16.30;96.90;;;;;;5050033;28;19952;-66
2021/07/05 03:55:55;;;;;;;;;;;16.30;96.90;;;;;;5082632;28;19935;-66
2021/07/05 03:58:21;;;;;;;;;;;16.30;97.00;;;;;;5083755;28;20154;-66
2021/07/05 04:00:46;;;;;;;;;;;16.20;96.90;;;;;;5081312;28;19960;-67
2021/07/05 04:03:12;;;;;;;;;;;16.20;96.90;;;;;;5082451;28;20352;-67
2021/07/05 04:05:38;;;;;;;;;;;16.20;96.90;;;;;;5067150;28;20015;-68
2021/07/05 04:08:04;;;;;;;;;;;16.30;96.90;;;;;;5070197;28;20007;-69
2021/07/05 04:10:31;;;;;;;;;;;16.20;96.80;;;;;;5081300;28;19916;-69
2021/07/05 04:12:57;;;;;;;;;;;16.20;96.80;;;;;;5080074;28;20281;-70
2021/07/05 04:15:22;;;;;;;;;;;16.30;96.80;;;;;;5082733;28;19916;-67
2021/07/05 04:17:48;;;;;;;;;;;16.30;96.50;;;;;;5071981;28;20288;-67
2021/07/05 04:20:15;;;;;;;;;;;16.30;96.50;;;;;;5083086;28;19916;-68
2021/07/05 04:22:41;;;;;;;;;;;16.30;96.40;;;;;;5080497;28;19928;-67
2021/07/05 04:25:08;;;;;;;;;;;16.30;96.20;;;;;;5072683;28;19934;-67
2021/07/05 04:27:33;;;;;;;;;;;16.40;96.10;;;;;;5068999;28;20042;-68
2021/07/05 04:29:59;;;;;;;;;;;16.30;96.20;;;;;;5080826;28;19930;-68
2021/07/05 04:32:24;;;;;;;;;;;16.30;96.20;;;;;;5078638;28;19934;-68
2021/07/05 04:34:50;;;;;;;;;;;16.40;96.40;;;;;;5070313;28;19912;-68
2021/07/05 04:37:15;;;;;;;;;;;16.40;96.30;;;;;;5079652;28;20068;-67
2021/07/05 04:39:41;;;;;;;;;;;16.30;96.10;;;;;;5072749;28;20218;-66
2021/07/05 04:42:07;;;;;;;;;;;16.30;96.10;;;;;;5080772;28;19976;-67
2021/07/05 04:44:32;;;;;;;;;;;16.30;96.00;;;;;;5080267;28;19920;-68
2021/07/05 04:46:58;;;;;;;;;;;16.30;96.20;;;;;;5077460;28;20208;-68
2021/07/05 04:49:26;;;;;;;;;;;16.30;96.30;;;;;;5077348;28;19948;-68
2021/07/05 04:51:51;;;;;;;;;;;16.30;96.40;;;;;;5080699;28;20328;-68
2021/07/05 04:54:17;;;;;;;;;;;16.20;95.90;;;;;;5079313;28;19983;-68
2021/07/05 04:56:43;;;;;;;;;;;16.30;96.00;;;;;;5072814;28;19927;-68
2021/07/05 04:59:10;;;;;;;;;;;16.20;95.90;;;;;;5086802;28;19912;-68
2021/07/05 05:01:36;;;;;;;;;;;16.10;95.80;;;;;;5084100;28;19908;-68
2021/07/05 05:04:01;;;;;;;;;;;16.00;95.80;;;;;;5086976;28;20088;-69
2021/07/05 05:06:27;;;;;;;;;;;16.10;96.00;;;;;;5077266;28;20461;-68
2021/07/05 05:08:53;;;;;;;;;;;16.00;95.90;;;;;;5082395;28;19938;-69
2021/07/05 05:11:19;;;;;;;;;;;16.10;95.70;;;;;;5078166;28;20035;-68
2021/07/05 05:13:45;;;;;;;;;;;16.00;95.60;;;;;;5086646;28;20011;-68
2021/07/05 05:16:11;;;;;;;;;;;16.00;95.60;;;;;;5077128;28;20193;-69
2021/07/05 05:18:37;;;;;;;;;;;16.00;95.70;;;;;;5068188;28;19916;-67
2021/07/05 05:21:03;;;;;;;;;;;16.00;95.80;;;;;;5074884;28;19996;-68
2021/07/05 05:23:28;;;;;;;;;;;16.10;95.70;;;;;;5085386;28;20324;-69
2021/07/05 05:25:54;;;;;;;;;;;16.00;95.40;;;;;;5086525;28;19913;-68
2021/07/05 05:28:19;;;;;;;;;;;16.10;95.70;;;;;;5079999;28;19944;-67
2021/07/05 05:30:45;;;;;;;;;;;16.10;95.70;;;;;;5072535;28;20003;-68
2021/07/05 05:33:10;;;;;;;;;;;16.10;95.50;;;;;;5061596;28;20431;-68
2021/07/05 05:35:36;;;;;;;;;;;16.10;95.50;;;;;;5086608;28;19957;-67
2021/07/05 05:38:01;;;;;;;;;;;16.10;95.60;;;;;;5086347;28;19908;-68
2021/07/05 05:40:27;;;;;;;;;;;16.20;95.20;;;;;;5078660;28;19995;-69
2021/07/05 05:42:53;;;;;;;;;;;16.30;95.40;;;;;;5072431;28;19912;-69
2021/07/05 05:45:19;;;;;;;;;;;16.40;95.40;;;;;;5078040;28;19943;-68
2021/07/05 05:47:44;;;;;;;;;;;16.40;94.80;;;;;;5080728;28;19916;-68
2021/07/05 05:50:10;;;;;;;;;;;16.40;94.70;;;;;;5072642;28;19963;-68
2021/07/05 05:52:36;;;;;;;;;;;16.50;95.00;;;;;;5084505;28;19935;-68
2021/07/05 05:55:02;;;;;;;;;;;16.50;94.80;;;;;;5083845;28;20345;-68
2021/07/05 05:57:29;;;;;;;;;;;16.50;94.60;;;;;;5084508;28;20361;-68
2021/07/05 05:59:56;;;;;;;;;;;16.60;94.70;;;;;;5086073;28;20011;-68
2021/07/05 06:02:23;;;;;;;;;;;16.60;94.70;;;;;;5079615;28;19916;-67
2021/07/05 06:04:48;;;;;;;;;;;16.60;94.80;;;;;;5074785;28;19913;-68
2021/07/05 06:07:14;;;;;;;;;;;16.70;94.50;;;;;;5075801;28;20336;-68
2021/07/05 06:09:39;;;;;;;;;;;16.70;94.20;;;;;;5072191;28;20281;-68
2021/07/05 06:12:05;;;;;;;;;;;16.70;94.30;;;;;;5073695;28;19928;-68
2021/07/05 06:14:31;;;;;;;;;;;16.70;93.90;;;;;;5084323;28;19916;-68
2021/07/05 06:16:56;;;;;;;;;;;16.70;94.20;;;;;;5083434;28;19934;-68
2021/07/05 06:19:22;;;;;;;;;;;16.70;93.50;;;;;;5082052;28;19963;-69
2021/07/05 06:21:47;;;;;;;;;;;16.70;93.30;;;;;;5083503;28;20013;-68
2021/07/05 06:24:13;;;;;;;;;;;16.80;93.30;;;;;;5077986;28;19919;-67
2021/07/05 06:26:39;;;;;;;;;;;16.80;92.90;;;;;;5073128;28;20072;-67
2021/07/05 06:29:05;;;;;;;;;;;16.70;92.70;;;;;;5084864;28;19912;-68
2021/07/05 06:31:35;;;;;;;;;;;16.80;92.90;;;;;;5082720;28;19920;-68
2021/07/05 06:34:01;;;;;;;;;;;16.80;93.00;;;;;;5055120;28;19930;-68
2021/07/05 06:36:26;;;;;;;;;;;16.60;92.50;;;;;;5066919;28;19931;-69
2021/07/05 06:38:52;;;;;;;;;;;16.70;92.90;;;;;;5074550;28;19924;-68
2021/07/05 06:41:17;;;;;;;;;;;16.70;92.70;;;;;;5081637;28;20015;-68
2021/07/05 06:43:43;;;;;;;;;;;16.80;92.50;;;;;;5083060;28;20076;-67
2021/07/05 06:46:09;;;;;;;;;;;16.70;92.60;;;;;;5078984;28;20288;-66
2021/07/05 06:48:35;;;;;;;;;;;16.70;92.60;;;;;;5059571;28;19957;-67
2021/07/05 06:51:00;;;;;;;;;;;16.80;92.30;;;;;;5074481;28;20285;-68
2021/07/05 06:53:26;;;;;;;;;;;16.90;92.70;;;;;;5079957;28;19919;-69
2021/07/05 06:55:52;;;;;;;;;;;16.80;91.80;;;;;;5076284;28;20376;-67
2021/07/05 06:58:17;;;;;;;;;;;16.80;91.50;;;;;;5078791;28;19912;-68
2021/07/05 07:00:45;;;;;;;;;;;17.00;91.90;;;;;;5079624;28;20200;-68
2021/07/05 07:03:11;;;;;;;;;;;17.00;91.80;;;;;;5080066;28;20006;-68
2021/07/05 07:05:36;;;;;;;;;;;16.90;91.00;;;;;;5083635;28;20384;-73
2021/07/05 07:08:03;;;;;;;;;;;16.90;91.10;;;;;;5079679;28;19920;-68
2021/07/05 07:10:28;;;;;;;;;;;17.00;91.20;;;;;;5078912;28;19960;-68
2021/07/05 07:12:56;;;;;;;;;;;17.40;91.70;;;;;;5074816;28;19955;-69
2021/07/05 07:15:29;;;;;;;;;;;17.50;90.10;;;;;;5079386;28;19920;-67
2021/07/05 07:18:33;;;;;;;;;;;17.70;90.00;;;;;;5083046;28;20078;-68
2021/07/05 07:20:40;;;;;;;;;;;18.00;89.00;;;;;;5072971;28;19923;-68
2021/07/05 07:23:06;;;;;;;;;;;18.00;88.00;;;;;;5076904;28;19916;-69
2021/07/05 07:25:31;;;;;;;;;;;17.80;87.60;;;;;;5073134;28;19923;-68
2021/07/05 07:27:57;;;;;;;;;;;17.70;89.10;;;;;;5079476;28;19989;-68
2021/07/05 07:30:22;;;;;;;;;;;17.60;88.30;;;;;;5074710;28;19968;-67
2021/07/05 07:32:48;;;;;;;;;;;17.60;89.60;;;;;;5076088;28;20358;-68
2021/07/05 07:35:15;;;;;;;;;;;17.40;89.30;;;;;;5069891;28;19940;-68
2021/07/05 07:37:43;;;;;;;;;;;17.50;89.50;;;;;;5082687;28;19919;-68
2021/07/05 07:42:36;;;;;;;;;;;18.00;88.00;;;;;;5067902;28;19916;-69
2021/07/05 07:45:02;;;;;;;;;;;18.20;87.30;;;;;;5075782;28;20285;-68
2021/07/05 07:47:28;;;;;;;;;;;18.40;86.50;;;;;;5074578;28;19951;-67
2021/07/05 07:49:54;;;;;;;;;;;18.40;86.50;;;;;;5072923;28;20372;-68
2021/07/05 07:52:20;;;;;;;;;;;18.20;86.60;;;;;;5073762;28;20383;-68
2021/07/05 07:54:45;;;;;;;;;;;18.20;86.80;;;;;;5075750;28;19947;-68
2021/07/05 07:57:16;;;;;;;;;;;18.20;86.80;;;;;;5081276;28;19992;-68
2021/07/05 07:59:44;;;;;;;;;;;18.30;87.00;;;;;;5083447;28;19932;-68
2021/07/05 08:02:13;;;;;;;;;;;18.20;87.00;;;;;;5082320;28;19916;-66
2021/07/05 08:04:39;;;;;;;;;;;18.50;87.00;;;;;;5070918;28;19963;-69
2021/07/05 08:07:04;;;;;;;;;;;18.60;87.30;;;;;;5073297;28;19952;-69
2021/07/05 08:09:30;;;;;;;;;;;18.60;85.90;;;;;;5080332;28;19973;-68
2021/07/05 08:11:55;;;;;;;;;;;18.70;85.40;;;;;;5072057;28;19917;-69
2021/07/05 08:14:21;;;;;;;;;;;19.00;84.50;;;;;;5056946;28;19981;-68
2021/07/05 08:16:46;;;;;;;;;;;19.30;84.40;;;;;;5082274;28;20402;-69
2021/07/05 08:19:12;;;;;;;;;;;19.40;83.10;;;;;;5080534;28;19920;-69
2021/07/05 08:21:38;;;;;;;;;;;19.30;82.10;;;;;;5078609;28;20357;-69
2021/07/05 08:24:04;;;;;;;;;;;19.20;83.00;;;;;;5081669;28;19912;-68
2021/07/05 08:26:30;;;;;;;;;;;19.40;82.40;;;;;;5072976;28;20224;-69
2021/07/05 08:28:55;;;;;;;;;;;19.30;81.40;;;;;;5061746;28;20490;-69
2021/07/05 08:31:21;;;;;;;;;;;19.10;81.90;;;;;;5080150;28;20425;-69
2021/07/05 08:33:47;;;;;;;;;;;18.80;82.10;;;;;;5072524;28;19919;-68
2021/07/05 08:36:13;;;;;;;;;;;18.90;82.50;;;;;;5080933;28;20235;-69
2021/07/05 08:38:39;;;;;;;;;;;19.00;83.00;;;;;;5084563;28;20017;-68
2021/07/05 08:41:04;;;;;;;;;;;19.60;81.80;;;;;;5082933;28;20435;-69
2021/07/05 08:43:31;;;;;;;;;;;19.90;81.40;;;;;;5082707;28;19935;-69
2021/07/05 08:46:01;;;;;;;;;;;20.50;78.60;;;;;;5083698;28;20366;-69
2021/07/05 08:48:31;;;;;;;;;;;20.80;76.10;;;;;;5080794;28;19978;-69
2021/07/05 08:50:58;;;;;;;;;;;21.10;76.30;;;;;;5083651;28;19923;-70
2021/07/05 08:53:24;;;;;;;;;;;22.00;75.20;;;;;;5075630;28;19992;-67
2021/07/05 08:55:49;;;;;;;;;;;21.50;73.10;;;;;;5087150;28;20039;-68
2021/07/05 08:58:15;;;;;;;;;;;21.20;73.90;;;;;;5085131;28;20443;-67
2021/07/05 09:00:40;;;;;;;;;;;21.00;74.80;;;;;;5084394;28;20370;-68
2021/07/05 09:03:06;;;;;;;;;;;20.90;75.60;;;;;;5082011;28;19912;-67
2021/07/05 09:05:31;;;;;;;;;;;20.90;74.30;;;;;;5055707;28;20356;-68
2021/07/05 09:08:02;;;;;;;;;;;21.00;75.60;;;;;;5085754;28;20086;-68
2021/07/05 09:10:37;;;;;;;;;;;20.90;74.10;;;;;;5081408;28;19916;-68
2021/07/05 09:13:20;;;;;;;;;;;21.50;73.60;;;;;;5083450;28;19956;-68
2021/07/05 09:15:49;;;;;;;;;;;21.60;70.00;;;;;;5075634;28;19913;-68
2021/07/05 09:18:21;;;;;;;;;;;21.70;73.00;;;;;;5073092;28;19964;-68
2021/07/05 09:20:47;;;;;;;;;;;21.40;69.70;;;;;;5081163;28;19928;-68
2021/07/05 09:23:13;;;;;;;;;;;21.60;71.10;;;;;;5085817;28;19934;-68
2021/07/05 09:25:40;;;;;;;;;;;21.40;71.40;;;;;;5078109;28;19963;-68
2021/07/05 09:28:06;;;;;;;;;;;21.90;71.20;;;;;;5083776;28;19940;-68
2021/07/05 09:30:51;;;;;;;;;;;22.00;69.00;;;;;;5081280;28;20122;-69
2021/07/05 09:33:21;;;;;;;;;;;21.90;68.60;;;;;;5079777;28;19960;-67
2021/07/05 09:35:54;;;;;;;;;;;22.00;69.10;;;;;;5067461;28;19988;-67
2021/07/05 09:38:27;;;;;;;;;;;21.80;68.10;;;;;;5084042;28;19920;-68
2021/07/05 09:40:52;;;;;;;;;;;21.70;69.20;;;;;;5071568;28;19982;-68
2021/07/05 09:43:23;;;;;;;;;;;22.50;71.00;;;;;;5076112;28;19917;-68
2021/07/05 09:45:49;;;;;;;;;;;22.60;68.50;;;;;;5080839;28;19939;-68
2021/07/05 09:48:24;;;;;;;;;;;22.50;66.80;;;;;;5079529;28;19927;-69
2021/07/05 09:50:56;;;;;;;;;;;22.50;67.40;;;;;;5078531;28;19969;-68
2021/07/05 09:53:32;;;;;;;;;;;22.40;66.50;;;;;;5077673;28;20401;-67
2021/07/05 09:56:16;;;;;;;;;;;22.00;68.00;;;;;;5074373;28;20323;-68
2021/07/05 09:58:42;;;;;;;;;;;22.10;68.60;;;;;;5084651;28;19912;-68
2021/07/05 10:01:08;;;;;;;;;;;22.50;67.60;;;;;;5082680;28;20345;-68
2021/07/05 10:03:35;;;;;;;;;;;22.10;67.70;;;;;;5082888;28;19913;-69
2021/07/05 10:06:20;;;;;;;;;;;22.10;69.20;;;;;;5078507;28;20052;-68
2021/07/05 10:08:47;;;;;;;;;;;22.00;67.80;;;;;;5069982;28;20315;-68
2021/07/05 10:11:12;;;;;;;;;;;22.00;68.90;;;;;;5080593;28;19946;-68
2021/07/05 10:13:38;;;;;;;;;;;22.00;68.60;;;;;;5082270;28;19931;-68
2021/07/05 10:16:07;;;;;;;;;;;22.00;67.90;;;;;;5077209;28;19915;-68
2021/07/05 10:18:34;;;;;;;;;;;22.10;66.70;;;;;;5072422;28;20414;-68
2021/07/05 10:21:00;;;;;;;;;;;22.00;67.50;;;;;;5081778;28;19916;-68
2021/07/05 10:23:25;;;;;;;;;;;21.90;67.30;;;;;;5084658;28;20267;-68
2021/07/05 10:25:51;;;;;;;;;;;22.20;67.10;;;;;;5085561;28;20408;-68
2021/07/05 10:28:17;;;;;;;;;;;22.20;67.40;;;;;;5079065;28;19990;-69
2021/07/05 10:30:43;;;;;;;;;;;22.20;67.20;;;;;;5079785;28;19996;-68
2021/07/05 10:33:09;;;;;;;;;;;22.30;67.30;;;;;;5079006;28;20007;-69
2021/07/05 10:35:35;;;;;;;;;;;22.20;66.90;;;;;;5079220;28;19912;-69
2021/07/05 10:38:01;;;;;;;;;;;22.20;67.50;;;;;;5079054;28;19931;-69
2021/07/05 10:40:34;;;;;;;;;;;22.30;67.50;;;;;;5072700;28;19920;-69
2021/07/05 10:42:59;;;;;;;;;;;22.60;69.40;;;;;;5084066;28;19920;-69
2021/07/05 10:45:45;;;;;;;;;;;22.40;68.60;;;;;;5084705;28;20287;-70
2021/07/05 10:48:15;;;;;;;;;;;22.70;68.50;;;;;;5081017;28;19912;-68
2021/07/05 10:50:45;;;;;;;;;;;22.70;67.40;;;;;;5078100;28;19932;-69
2021/07/05 10:53:12;;;;;;;;;;;23.00;65.20;;;;;;5080587;28;19927;-69
2021/07/05 10:55:38;;;;;;;;;;;22.90;64.60;;;;;;5078838;28;20079;-68
2021/07/05 10:58:14;;;;;;;;;;;23.30;64.70;;;;;;5074162;28;20351;-68
2021/07/05 11:00:44;;;;;;;;;;;22.80;65.00;;;;;;5079074;28;19924;-69
2021/07/05 11:03:10;;;;;;;;;;;22.70;66.20;;;;;;5078940;28;20004;-69
2021/07/05 11:05:37;;;;;;;;;;;22.50;66.20;;;;;;5077999;28;20565;-69
2021/07/05 11:08:22;;;;;;;;;;;22.30;68.70;;;;;;5082399;28;20015;-69
2021/07/05 11:10:48;;;;;;;;;;;22.20;68.30;;;;;;5073267;28;20698;-69
2021/07/05 11:13:16;;;;;;;;;;;22.00;69.90;;;;;;5077975;28;19922;-69
2021/07/05 11:16:00;;;;;;;;;;;21.60;69.40;;;;;;5078737;28;20133;-69
2021/07/05 11:21:07;;;;;;;;;;;21.30;74.40;;;;;;5079234;28;19928;-69
2021/07/05 11:23:51;;;;;;;;;;;21.00;76.50;;;;;;5083620;28;19924;-70
2021/07/05 11:26:18;;;;;;;;;;;20.50;78.30;;;;;;5084248;28;19915;-69
2021/07/05 11:28:43;;;;;;;;;;;20.00;80.30;;;;;;5075336;28;19919;-68
2021/07/05 11:31:19;;;;;;;;;;;19.50;82.00;;;;;;5074760;28;19920;-69
2021/07/05 11:33:44;;;;;;;;;;;19.20;85.10;;;;;;5080327;28;19928;-69
2021/07/05 11:36:17;;;;;;;;;;;18.80;86.10;;;;;;5075543;28;19927;-69
2021/07/05 11:38:43;;;;;;;;;;;18.50;88.40;;;;;;5062943;28;19940;-69
2021/07/05 11:41:12;;;;;;;;;;;18.20;90.50;;;;;;5083430;28;19916;-69
2021/07/05 11:43:41;;;;;;;;;;;18.00;91.50;;;;;;5073061;28;20345;-69
2021/07/05 11:46:07;;;;;;;;;;;17.60;91.20;;;;;;5071766;28;19935;-69
2021/07/05 11:48:38;;;;;;;;;;;17.60;92.80;;;;;;5072031;28;20057;-70
2021/07/05 11:51:16;;;;;;;;;;;17.30;92.50;;;;;;5074101;28;19968;-69
2021/07/05 11:53:46;;;;;;;;;;;17.40;93.30;;;;;;5078032;28;20260;-70
2021/07/05 11:56:23;;;;;;;;;;;17.40;92.60;;;;;;5069443;28;19913;-69
2021/07/05 11:58:49;;;;;;;;;;;17.50;93.10;;;;;;5073575;28;19916;-68
2021/07/05 12:01:14;;;;;;;;;;;17.50;93.40;;;;;;5083475;28;20192;-68
2021/07/05 12:03:53;;;;;;;;;;;17.70;93.60;;;;;;5061182;28;19938;-69
2021/07/05 12:06:19;;;;;;;;;;;17.50;92.70;;;;;;5054248;28;19935;-70
2021/07/05 12:09:10;;;;;;;;;;;17.50;92.10;;;;;;5073666;28;19916;-69
2021/07/05 12:11:41;;;;;;;;;;;17.40;92.10;;;;;;5070676;28;19996;-67
2021/07/05 12:14:21;;;;;;;;;;;17.40;92.10;;;;;;5076453;28;19912;-70
2021/07/05 12:16:50;;;;;;;;;;;17.30;91.20;;;;;;5073712;28;19912;-70
2021/07/05 12:19:16;;;;;;;;;;;17.40;92.20;;;;;;5077113;28;20403;-70
2021/07/05 12:21:43;;;;;;;;;;;17.30;91.80;;;;;;5073172;28;19920;-69
2021/07/05 12:24:14;;;;;;;;;;;17.50;92.70;;;;;;5073990;28;19996;-70
2021/07/05 12:26:51;;;;;;;;;;;17.50;91.70;;;;;;5074789;28;19965;-69
2021/07/05 12:29:28;;;;;;;;;;;17.60;92.30;;;;;;5073947;28;20291;-69
2021/07/05 12:32:03;;;;;;;;;;;17.50;92.10;;;;;;5074889;28;19988;-70
2021/07/05 12:34:49;;;;;;;;;;;17.60;92.80;;;;;;5074844;28;19935;-70
2021/07/05 12:37:16;;;;;;;;;;;17.50;91.70;;;;;;5072325;28;20241;-69
2021/07/05 12:39:46;;;;;;;;;;;17.60;92.10;;;;;;5075417;28;19920;-69
2021/07/05 12:42:38;;;;;;;;;;;18.00;92.90;;;;;;5072662;28;19973;-69
2021/07/05 12:45:17;;;;;;;;;;;18.30;92.50;;;;;;5037178;28;20265;-70
2021/07/05 12:47:44;;;;;;;;;;;18.40;91.60;;;;;;5076405;28;19916;-69
2021/07/05 12:50:09;;;;;;;;;;;18.40;89.90;;;;;;5072278;28;20387;-70
2021/07/05 12:52:35;;;;;;;;;;;18.80;91.50;;;;;;5077455;28;19912;-70
2021/07/05 12:55:13;;;;;;;;;;;18.80;91.00;;;;;;5075301;28;20013;-70
2021/07/05 12:57:52;;;;;;;;;;;19.00;90.90;;;;;;5076344;28;20003;-70
2021/07/05 13:00:19;;;;;;;;;;;19.00;89.50;;;;;;5075400;28;19912;-69
2021/07/05 13:02:46;;;;;;;;;;;18.80;88.40;;;;;;5073251;28;22260;-69
2021/07/05 13:05:12;;;;;;;;;;;19.10;90.80;;;;;;5076912;28;20232;-71
2021/07/05 13:07:39;;;;;;;;;;;19.10;89.20;;;;;;5078294;28;19942;-69
2021/07/05 13:10:06;;;;;;;;;;;19.00;89.70;;;;;;5077443;28;20063;-70
2021/07/05 13:12:32;;;;;;;;;;;19.00;89.50;;;;;;5077140;28;19916;-69
2021/07/05 13:15:10;;;;;;;;;;;19.00;88.80;;;;;;5077992;28;20067;-69
2021/07/05 13:17:36;;;;;;;;;;;19.00;88.50;;;;;;5075051;28;19920;-70
2021/07/05 13:20:08;;;;;;;;;;;19.40;88.90;;;;;;5080470;28;20003;-70
2021/07/05 13:22:33;;;;;;;;;;;19.60;86.70;;;;;;5079798;28;20427;-70
2021/07/05 13:24:59;;;;;;;;;;;19.70;86.70;;;;;;5077749;28;20006;-70
2021/07/05 13:27:34;;;;;;;;;;;19.90;84.80;;;;;;5059670;28;19921;-70
2021/07/05 13:30:00;;;;;;;;;;;20.30;85.10;;;;;;5075086;28;19988;-70
2021/07/05 13:32:28;;;;;;;;;;;20.60;83.60;;;;;;5064065;28;19916;-70
2021/07/05 13:35:00;;;;;;;;;;;20.90;81.30;;;;;;5079967;28;20391;-70
2021/07/05 13:37:41;;;;;;;;;;;20.90;80.90;;;;;;5079596;28;19912;-68
2021/07/05 13:40:08;;;;;;;;;;;20.90;79.80;;;;;;5077902;28;19957;-68
2021/07/05 13:42:54;;;;;;;;;;;21.00;81.60;;;;;;5079619;28;19990;-68
2021/07/05 13:45:23;;;;;;;;;;;20.90;81.80;;;;;;5077732;28;19919;-68
2021/07/05 13:47:59;;;;;;;;;;;21.00;81.00;;;;;;5081036;28;19964;-69
2021/07/05 13:50:36;;;;;;;;;;;21.20;81.30;;;;;;5071324;28;20007;-69
2021/07/05 13:53:12;;;;;;;;;;;21.20;80.60;;;;;;5078652;28;19963;-69
2021/07/05 13:55:38;;;;;;;;;;;21.30;79.00;;;;;;5073359;28;19963;-68
2021/07/05 13:58:11;;;;;;;;;;;21.40;80.20;;;;;;5078912;28;20046;-67
2021/07/05 14:00:38;;;;;;;;;;;21.70;78.90;;;;;;5081776;28;20076;-69
2021/07/05 14:03:05;;;;;;;;;;;21.30;77.80;;;;;;5078999;28;19931;-69
2021/07/05 14:05:31;;;;;;;;;;;22.00;77.50;;;;;;5073849;28;20011;-69
2021/07/05 14:07:57;;;;;;;;;;;23.40;76.70;;;;;;5077944;28;20461;-69
2021/07/05 14:10:23;;;;;;;;;;;24.30;72.90;;;;;;5077778;28;20102;-68
2021/07/05 14:12:50;;;;;;;;;;;24.80;67.00;;;;;;5075716;28;20027;-69
2021/07/05 14:15:16;;;;;;;;;;;24.00;68.20;;;;;;5074819;28;19916;-69
2021/07/05 14:17:41;;;;;;;;;;;23.30;70.00;;;;;;5078539;28;19912;-68
2021/07/05 14:20:08;;;;;;;;;;;22.10;71.20;;;;;;5075550;28;19990;-68
2021/07/05 14:22:34;;;;;;;;;;;22.00;71.60;;;;;;5076977;28;19951;-68
2021/07/05 14:25:00;;;;;;;;;;;22.20;72.60;;;;;;5083654;28;19912;-68